createdAt,value
2019-04-30T00:00:45.263Z,37.33
2019-04-30T00:03:19.336Z,36.42
2019-04-30T00:05:49.361Z,38.35
2019-04-30T00:08:16.994Z,37.75
2019-04-30T00:10:45.520Z,38.25
2019-04-30T00:13:17.830Z,36.58
2019-04-30T00:15:45.282Z,36.10
2019-04-30T00:18:15.543Z,34.00
2019-04-30T00:20:46.975Z,36.53
2019-04-30T00:23:17.818Z,35.78
2019-04-30T00:25:46.478Z,35.10
2019-04-30T00:28:15.564Z,35.40
2019-04-30T00:30:47.312Z,35.00
2019-04-30T00:33:15.330Z,35.48
2019-04-30T00:35:45.393Z,34.45
2019-04-30T00:38:15.125Z,35.15
2019-04-30T00:40:45.073Z,36.60
2019-04-30T00:43:15.452Z,35.80
2019-04-30T00:45:47.398Z,34.10
2019-04-30T00:48:19.432Z,34.75
2019-04-30T00:50:45.740Z,37.08
2019-04-30T00:53:16.232Z,36.08
2019-04-30T00:55:48.429Z,34.73
2019-04-30T00:58:19.714Z,33.73
2019-04-30T01:00:59.754Z,37.03
2019-04-30T01:03:30.632Z,35.48
2019-04-30T01:05:59.122Z,35.43
2019-04-30T01:08:32.371Z,35.40
2019-04-30T01:11:06.466Z,35.63
2019-04-30T01:13:32.012Z,36.10
2019-04-30T01:16:00.504Z,34.63
2019-04-30T01:18:32.022Z,36.33
2019-04-30T01:21:02.936Z,34.63
2019-04-30T01:23:30.044Z,35.33
2019-04-30T01:25:58.675Z,35.92
2019-04-30T01:28:28.980Z,36.40
2019-04-30T01:31:01.894Z,36.10
2019-04-30T01:33:34.534Z,35.13
2019-04-30T01:36:04.101Z,33.18
2019-04-30T01:38:31.073Z,34.65
2019-04-30T01:41:00.311Z,33.90
2019-04-30T01:43:33.550Z,35.50
2019-04-30T01:46:01.730Z,34.55
2019-04-30T01:48:29.639Z,34.33
2019-04-30T01:50:58.657Z,34.18
2019-04-30T01:53:28.657Z,34.33
2019-04-30T01:56:16.081Z,33.53
2019-04-30T01:59:01.200Z,34.43
2019-04-30T02:01:31.790Z,34.30
2019-04-30T02:04:00.735Z,33.58
2019-04-30T02:06:29.491Z,34.50
2019-04-30T02:08:59.365Z,33.90
2019-04-30T02:11:28.879Z,35.03
2019-04-30T02:13:59.118Z,33.95
2019-04-30T02:16:29.016Z,33.88
2019-04-30T02:18:59.511Z,34.53
2019-04-30T02:21:29.898Z,34.50
2019-04-30T02:23:58.840Z,34.13
2019-04-30T02:26:28.659Z,33.75
2019-04-30T02:29:00.167Z,33.45
2019-04-30T02:31:30.952Z,34.23
2019-04-30T02:34:03.371Z,33.78
2019-04-30T02:36:45.154Z,33.90
2019-04-30T02:39:13.680Z,35.35
2019-04-30T02:41:44.099Z,34.43
2019-04-30T02:44:14.375Z,34.23
2019-04-30T02:46:44.190Z,36.73
2019-04-30T02:49:14.190Z,35.63
2019-04-30T02:51:44.687Z,37.13
2019-04-30T02:54:15.766Z,33.42
2019-04-30T02:56:45.915Z,33.25
2019-04-30T02:59:14.777Z,35.60
2019-04-30T03:01:43.500Z,35.20
2019-04-30T03:04:12.096Z,33.33
2019-04-30T03:06:40.894Z,36.08
2019-04-30T03:09:10.646Z,33.10
2019-04-30T03:11:40.616Z,33.78
2019-04-30T03:14:12.474Z,34.25
2019-04-30T03:16:54.017Z,35.85
2019-04-30T03:19:24.345Z,31.57
2019-04-30T03:21:56.926Z,34.65
2019-04-30T03:24:25.376Z,34.05
2019-04-30T03:26:59.257Z,35.35
2019-04-30T03:29:30.036Z,33.55
2019-04-30T03:32:02.029Z,35.68
2019-04-30T03:34:31.843Z,34.40
2019-04-30T03:37:01.657Z,35.75
2019-04-30T03:39:30.547Z,34.88
2019-04-30T03:41:59.727Z,35.50
2019-04-30T03:44:31.585Z,33.85
2019-04-30T03:46:59.328Z,35.45
2019-04-30T03:49:29.831Z,35.20
2019-04-30T03:51:59.921Z,36.10
2019-04-30T03:54:29.326Z,33.90
2019-04-30T03:57:02.562Z,35.03
2019-04-30T03:59:32.227Z,33.70
2019-04-30T04:02:16.131Z,34.15
2019-04-30T04:04:52.156Z,33.50
2019-04-30T04:07:20.378Z,32.60
2019-04-30T04:09:50.613Z,34.23
2019-04-30T04:12:24.510Z,33.63
2019-04-30T04:14:53.372Z,31.02
2019-04-30T04:17:22.451Z,32.55
2019-04-30T04:19:53.800Z,30.88
2019-04-30T04:22:22.537Z,30.82
2019-04-30T04:24:51.212Z,29.45
2019-04-30T04:27:19.965Z,29.25
2019-04-30T04:29:50.891Z,27.37
2019-04-30T04:32:23.516Z,30.32
2019-04-30T04:34:50.471Z,29.40
2019-04-30T04:37:20.242Z,27.35
2019-04-30T04:39:50.104Z,25.80
2019-04-30T04:42:19.574Z,27.95
2019-04-30T04:44:50.231Z,26.33
2019-04-30T04:47:20.019Z,27.55
2019-04-30T04:49:53.262Z,27.22
2019-04-30T04:52:21.539Z,26.77
2019-04-30T04:54:50.782Z,28.15
2019-04-30T04:57:22.715Z,27.85
2019-04-30T04:59:50.166Z,26.60
2019-04-30T05:02:23.266Z,26.57
2019-04-30T05:07:19.673Z,27.90
2019-04-30T05:09:48.940Z,28.40
2019-04-30T05:12:18.567Z,27.70
2019-04-30T05:14:48.442Z,26.07
2019-04-30T05:17:16.968Z,29.12
2019-04-30T05:19:45.528Z,27.80
2019-04-30T05:22:14.077Z,25.55
2019-04-30T05:24:42.790Z,24.92
2019-04-30T05:27:11.351Z,26.30
2019-04-30T05:29:39.990Z,26.30
2019-04-30T05:32:09.500Z,26.45
2019-04-30T05:34:40.132Z,26.73
2019-04-30T05:37:09.016Z,26.73
2019-04-30T05:39:39.067Z,26.07
2019-04-30T05:42:08.826Z,24.60
2019-04-30T05:44:39.437Z,26.65
2019-04-30T05:47:09.199Z,24.85
2019-04-30T05:49:38.870Z,23.52
2019-04-30T05:52:09.442Z,24.50
2019-04-30T05:54:39.093Z,24.70
2019-04-30T05:57:09.501Z,25.08
2019-04-30T05:59:38.809Z,26.33
2019-04-30T06:02:08.881Z,25.62
2019-04-30T06:04:38.739Z,25.25
2019-04-30T06:07:08.629Z,25.92
2019-04-30T06:09:41.597Z,23.38
2019-04-30T06:12:28.447Z,25.77
2019-04-30T06:15:01.351Z,26.00
2019-04-30T06:17:33.515Z,25.70
2019-04-30T06:20:02.031Z,24.37
2019-04-30T06:22:30.733Z,25.37
2019-04-30T06:24:59.546Z,25.50
2019-04-30T06:27:29.170Z,25.72
2019-04-30T06:29:58.514Z,25.68
2019-04-30T06:32:27.119Z,26.15
2019-04-30T06:34:55.834Z,26.00
2019-04-30T06:37:25.011Z,25.65
2019-04-30T06:39:53.533Z,25.60
2019-04-30T06:42:22.326Z,26.95
2019-04-30T06:44:51.464Z,24.67
2019-04-30T06:47:32.338Z,25.90
2019-04-30T06:49:51.147Z,25.92
2019-04-30T06:52:23.007Z,25.80
2019-04-30T06:54:50.050Z,23.60
2019-04-30T06:57:19.850Z,23.25
2019-04-30T06:59:51.233Z,23.20
2019-04-30T07:02:19.672Z,23.73
2019-04-30T07:04:49.164Z,22.60
2019-04-30T07:07:21.407Z,21.57
2019-04-30T07:10:00.987Z,21.42
2019-04-30T07:12:34.109Z,21.90
2019-04-30T07:15:03.225Z,22.73
2019-04-30T07:17:31.690Z,20.12
2019-04-30T07:20:00.146Z,22.02
2019-04-30T07:22:39.454Z,21.02
2019-04-30T07:24:59.545Z,20.75
2019-04-30T07:27:30.165Z,20.97
2019-04-30T07:29:59.623Z,20.27
2019-04-30T07:32:28.826Z,20.10
2019-04-30T07:34:59.286Z,18.60
2019-04-30T07:37:29.282Z,18.15
2019-04-30T07:39:58.940Z,17.92
2019-04-30T07:42:29.433Z,18.48
2019-04-30T07:45:00.434Z,20.17
2019-04-30T07:47:29.582Z,19.40
2019-04-30T07:50:00.646Z,19.48
2019-04-30T07:52:33.309Z,18.60
2019-04-30T07:55:00.605Z,17.07
2019-04-30T07:57:29.173Z,18.87
2019-04-30T08:00:00.514Z,18.80
2019-04-30T08:02:36.713Z,18.82
2019-04-30T08:05:02.780Z,17.85
2019-04-30T08:07:31.249Z,19.00
2019-04-30T08:09:59.782Z,18.75
2019-04-30T08:12:31.940Z,19.17
2019-04-30T08:14:59.430Z,16.90
2019-04-30T08:17:28.907Z,17.15
2019-04-30T08:19:58.833Z,16.95
2019-04-30T08:22:29.507Z,16.30
2019-04-30T08:24:58.675Z,16.97
2019-04-30T08:27:29.486Z,16.50
2019-04-30T08:29:59.125Z,17.20
2019-04-30T08:32:30.315Z,17.32
2019-04-30T08:35:00.950Z,16.85
2019-04-30T08:37:29.108Z,15.85
2019-04-30T08:39:59.759Z,16.17
2019-04-30T08:42:31.643Z,16.07
2019-04-30T08:44:58.590Z,15.60
2019-04-30T08:47:29.084Z,17.42
2019-04-30T08:50:01.588Z,17.87
2019-04-30T08:52:27.589Z,17.80
2019-04-30T08:54:56.131Z,16.27
2019-04-30T08:57:24.633Z,17.52
2019-04-30T08:59:53.083Z,17.50
2019-04-30T09:02:21.514Z,18.42
2019-04-30T09:04:51.680Z,16.85
2019-04-30T09:07:20.102Z,17.12
2019-04-30T09:09:48.967Z,14.18
2019-04-30T09:12:19.456Z,14.03
2019-04-30T09:14:49.090Z,15.23
2019-04-30T09:17:19.669Z,17.73
2019-04-30T09:19:49.056Z,16.37
2019-04-30T09:22:19.430Z,16.52
2019-04-30T09:24:49.636Z,14.18
2019-04-30T09:27:19.553Z,14.33
2019-04-30T09:29:49.183Z,12.37
2019-04-30T09:32:19.346Z,14.40
2019-04-30T09:34:48.771Z,13.83
2019-04-30T09:37:18.747Z,14.50
2019-04-30T09:39:49.496Z,14.85
2019-04-30T09:42:19.528Z,14.38
2019-04-30T09:44:49.200Z,14.53
2019-04-30T09:47:19.898Z,14.90
2019-04-30T09:49:49.322Z,15.45
2019-04-30T09:52:19.342Z,14.03
2019-04-30T09:54:50.069Z,14.07
2019-04-30T09:57:19.332Z,14.78
2019-04-30T09:59:48.629Z,14.00
2019-04-30T10:02:19.197Z,14.47
2019-04-30T10:04:47.971Z,18.23
2019-04-30T10:07:16.788Z,12.68
2019-04-30T10:09:45.306Z,14.13
2019-04-30T10:12:16.940Z,14.03
2019-04-30T10:14:45.410Z,12.93
2019-04-30T10:17:15.539Z,15.00
2019-04-30T10:19:44.085Z,14.87
2019-04-30T10:22:12.558Z,14.33
2019-04-30T10:24:41.107Z,14.40
2019-04-30T10:27:12.994Z,13.85
2019-04-30T10:29:41.238Z,14.07
2019-04-30T10:32:09.825Z,14.83
2019-04-30T10:34:38.307Z,15.35
2019-04-30T10:37:08.843Z,13.53
2019-04-30T10:39:38.973Z,14.10
2019-04-30T10:42:07.385Z,12.40
2019-04-30T10:44:35.906Z,11.50
2019-04-30T10:47:04.593Z,12.07
2019-04-30T10:49:33.069Z,12.00
2019-04-30T10:52:01.542Z,12.47
2019-04-30T10:54:30.055Z,13.90
2019-04-30T10:56:59.182Z,13.05
2019-04-30T10:59:27.813Z,12.82
2019-04-30T11:01:56.322Z,13.30
2019-04-30T11:04:24.760Z,12.20
2019-04-30T11:06:53.251Z,13.15
2019-04-30T11:09:22.080Z,12.68
2019-04-30T11:11:50.586Z,10.90
2019-04-30T11:14:19.121Z,11.38
2019-04-30T11:16:51.134Z,11.68
2019-04-30T11:19:19.196Z,11.50
2019-04-30T11:21:48.088Z,11.00
2019-04-30T11:24:16.713Z,10.85
2019-04-30T11:26:45.994Z,10.32
2019-04-30T11:29:15.000Z,11.35
2019-04-30T11:31:57.695Z,10.82
2019-04-30T11:34:28.208Z,11.30
2019-04-30T11:36:56.603Z,10.75
2019-04-30T11:39:25.378Z,10.60
2019-04-30T11:41:53.871Z,11.33
2019-04-30T11:44:30.963Z,11.00
2019-04-30T11:47:01.251Z,12.65
2019-04-30T11:49:29.819Z,11.53
2019-04-30T11:51:58.428Z,11.45
2019-04-30T11:54:26.954Z,10.93
2019-04-30T11:56:55.912Z,10.72
2019-04-30T11:59:25.442Z,10.95
2019-04-30T12:01:55.760Z,10.53
2019-04-30T12:04:24.223Z,10.20
2019-04-30T12:06:54.498Z,9.83
2019-04-30T12:09:30.413Z,9.28
2019-04-30T12:11:59.007Z,9.73
2019-04-30T12:14:29.608Z,9.78
2019-04-30T12:16:57.692Z,8.43
2019-04-30T12:19:26.146Z,8.60
2019-04-30T12:21:54.752Z,9.75
2019-04-30T12:24:23.289Z,8.40
2019-04-30T12:26:51.717Z,8.05
2019-04-30T12:29:20.121Z,8.33
2019-04-30T12:31:48.648Z,8.43
2019-04-30T12:34:17.067Z,9.25
2019-04-30T12:36:45.501Z,8.80
2019-04-30T12:39:13.939Z,7.60
2019-04-30T12:41:42.450Z,7.35
2019-04-30T12:44:10.961Z,7.20
2019-04-30T12:46:39.522Z,7.20
2019-04-30T12:49:10.324Z,8.50
2019-04-30T12:51:46.360Z,8.98
2019-04-30T12:54:22.503Z,7.45
2019-04-30T12:56:58.654Z,7.50
2019-04-30T12:59:27.225Z,7.03
2019-04-30T13:01:55.761Z,6.80
2019-04-30T13:04:24.307Z,6.58
2019-04-30T13:06:53.298Z,6.65
2019-04-30T13:09:22.524Z,6.60
2019-04-30T13:11:51.841Z,7.53
2019-04-30T13:14:21.192Z,7.40
2019-04-30T13:16:50.196Z,7.95
2019-04-30T13:19:18.655Z,7.87
2019-04-30T13:21:47.067Z,7.70
2019-04-30T13:24:15.636Z,7.30
2019-04-30T13:26:44.155Z,7.17
2019-04-30T13:29:17.231Z,6.97
2019-04-30T13:34:18.608Z,7.62
2019-04-30T13:36:49.230Z,7.60
2019-04-30T13:39:29.799Z,7.17
2019-04-30T13:42:14.837Z,6.75
2019-04-30T13:44:34.130Z,6.80
2019-04-30T13:47:02.570Z,6.83
2019-04-30T13:49:31.330Z,6.95
2019-04-30T13:51:59.770Z,7.35
2019-04-30T13:54:28.225Z,6.20
2019-04-30T13:56:56.807Z,6.40
2019-04-30T13:59:25.323Z,6.60
2019-04-30T14:01:53.962Z,6.50
2019-04-30T14:04:40.364Z,6.45
2019-04-30T14:07:10.597Z,6.12
2019-04-30T14:09:39.017Z,12.05
2019-04-30T14:12:07.631Z,8.63
2019-04-30T14:14:36.130Z,6.70
2019-04-30T14:17:04.646Z,6.35
2019-04-30T14:19:34.050Z,5.92
2019-04-30T14:22:02.462Z,8.10
2019-04-30T14:24:30.883Z,5.50
2019-04-30T14:26:59.607Z,5.92
2019-04-30T14:29:28.442Z,6.60
2019-04-30T14:31:58.828Z,8.50
2019-04-30T14:34:28.573Z,7.25
2019-04-30T14:36:59.201Z,6.80
2019-04-30T14:39:29.207Z,6.37
2019-04-30T14:42:00.028Z,6.17
2019-04-30T14:44:32.998Z,5.97
2019-04-30T14:47:06.237Z,5.70
2019-04-30T14:52:15.129Z,7.10
2019-04-30T14:55:00.404Z,7.05
2019-04-30T14:57:39.187Z,6.12
2019-04-30T15:00:25.676Z,6.83
2019-04-30T15:03:13.718Z,6.33
2019-04-30T15:05:48.407Z,6.65
2019-04-30T15:08:12.362Z,7.03
2019-04-30T15:10:40.812Z,6.53
2019-04-30T15:13:09.758Z,6.78
2019-04-30T15:15:39.151Z,6.55
2019-04-30T15:18:09.195Z,7.28
2019-04-30T15:20:39.619Z,7.10
2019-04-30T15:23:09.579Z,7.60
2019-04-30T15:25:38.818Z,7.65
2019-04-30T15:28:07.259Z,7.33
2019-04-30T15:30:35.708Z,7.53
2019-04-30T15:33:09.410Z,7.05
2019-04-30T15:35:37.950Z,7.22
2019-04-30T15:38:06.487Z,7.33
2019-04-30T15:40:35.010Z,7.30
2019-04-30T15:43:05.164Z,7.78
2019-04-30T15:45:33.692Z,8.08
2019-04-30T15:48:02.275Z,7.17
2019-04-30T15:50:30.739Z,7.22
2019-04-30T15:52:59.230Z,8.15
2019-04-30T15:55:27.713Z,7.62
2019-04-30T15:58:06.733Z,8.15
2019-04-30T16:00:35.290Z,8.10
2019-04-30T16:03:05.464Z,7.72
2019-04-30T16:05:35.666Z,8.60
2019-04-30T16:08:21.602Z,9.28
2019-04-30T16:10:54.833Z,8.20
2019-04-30T16:13:24.983Z,8.18
2019-04-30T16:15:53.444Z,8.48
2019-04-30T16:18:22.284Z,8.45
2019-04-30T16:20:50.728Z,8.45
2019-04-30T16:23:19.247Z,8.73
2019-04-30T16:25:47.816Z,8.68
2019-04-30T16:28:16.486Z,8.58
2019-04-30T16:30:44.994Z,8.90
2019-04-30T16:33:13.432Z,9.35
2019-04-30T16:35:41.901Z,9.18
2019-04-30T16:38:10.403Z,8.83
2019-04-30T16:40:39.005Z,8.70
2019-04-30T16:43:07.524Z,8.68
2019-04-30T16:45:35.992Z,9.48
2019-04-30T16:48:04.403Z,8.43
2019-04-30T16:50:32.881Z,9.25
2019-04-30T16:53:01.317Z,9.58
2019-04-30T16:55:29.755Z,9.35
2019-04-30T16:57:59.119Z,8.60
2019-04-30T17:00:29.068Z,8.98
2019-04-30T17:02:59.803Z,8.78
2019-04-30T17:05:39.594Z,9.15
2019-04-30T17:08:09.782Z,9.58
2019-04-30T17:10:45.605Z,9.68
2019-04-30T17:13:15.661Z,9.08
2019-04-30T17:15:45.988Z,8.78
2019-04-30T17:18:14.762Z,9.58
2019-04-30T17:20:43.226Z,8.95
2019-04-30T17:23:11.699Z,8.68
2019-04-30T17:25:40.175Z,9.05
2019-04-30T17:28:09.177Z,9.18
2019-04-30T17:30:39.194Z,9.15
2019-04-30T17:33:09.494Z,9.03
2019-04-30T17:35:38.747Z,9.18
2019-04-30T17:38:08.450Z,8.90
2019-04-30T17:40:38.855Z,8.85
2019-04-30T17:43:07.712Z,9.18
2019-04-30T17:45:36.235Z,9.20
2019-04-30T17:48:04.889Z,8.38
2019-04-30T17:50:33.365Z,8.18
2019-04-30T17:53:01.853Z,8.95
2019-04-30T17:55:30.265Z,8.48
2019-04-30T17:57:58.730Z,8.43
2019-04-30T18:00:29.292Z,8.63
2019-04-30T18:02:57.993Z,8.60
2019-04-30T18:05:26.550Z,8.95
2019-04-30T18:07:55.177Z,8.03
2019-04-30T18:10:23.745Z,7.97
2019-04-30T18:12:52.379Z,8.15
2019-04-30T18:15:25.338Z,7.60
2019-04-30T18:17:55.574Z,7.75
2019-04-30T18:20:34.539Z,7.70
2019-04-30T18:23:19.760Z,7.53
2019-04-30T18:25:52.601Z,8.55
2019-04-30T18:28:21.051Z,9.08
2019-04-30T18:30:50.191Z,7.95
2019-04-30T18:33:18.818Z,7.95
2019-04-30T18:35:48.649Z,8.43
2019-04-30T18:38:17.809Z,8.10
2019-04-30T18:40:46.420Z,8.65
2019-04-30T18:43:15.894Z,7.78
2019-04-30T18:45:44.835Z,10.63
2019-04-30T18:48:14.313Z,11.38
2019-04-30T18:50:42.907Z,12.43
2019-04-30T18:53:12.984Z,11.08
2019-04-30T18:55:41.864Z,11.65
2019-04-30T18:58:10.798Z,9.60
2019-04-30T19:00:41.523Z,8.18
2019-04-30T19:03:10.146Z,7.72
2019-04-30T19:05:40.627Z,8.80
2019-04-30T19:08:19.412Z,8.93
2019-04-30T19:10:52.006Z,8.38
2019-04-30T19:16:18.783Z,8.63
2019-04-30T19:18:35.870Z,8.68
2019-04-30T19:21:06.603Z,8.68
2019-04-30T19:23:35.215Z,8.05
2019-04-30T19:26:03.894Z,15.00
2019-04-30T19:28:32.397Z,8.70
2019-04-30T19:31:01.134Z,8.25
2019-04-30T19:33:31.195Z,8.78
2019-04-30T19:35:59.980Z,8.73
2019-04-30T19:38:28.628Z,8.50
2019-04-30T19:40:57.180Z,9.70
2019-04-30T19:43:25.898Z,8.45
2019-04-30T19:45:54.498Z,8.98
2019-04-30T19:48:22.997Z,8.98
2019-04-30T19:50:51.492Z,8.63
2019-04-30T19:53:22.155Z,9.40
2019-04-30T19:55:50.362Z,8.93
2019-04-30T19:58:27.700Z,8.63
2019-04-30T20:00:49.895Z,8.63
2019-04-30T20:03:19.900Z,8.85
2019-04-30T20:05:48.779Z,8.70
2019-04-30T20:08:19.739Z,9.00
2019-04-30T20:10:49.627Z,9.15
2019-04-30T20:13:30.605Z,9.53
2019-04-30T20:15:49.445Z,9.13
2019-04-30T20:18:19.097Z,9.13
2019-04-30T20:20:51.742Z,9.33
2019-04-30T20:23:19.879Z,9.33
2019-04-30T20:25:48.422Z,9.38
2019-04-30T20:28:17.137Z,9.58
2019-04-30T20:30:45.932Z,9.65
2019-04-30T20:33:14.415Z,10.13
2019-04-30T20:35:43.236Z,9.60
2019-04-30T20:38:13.396Z,9.73
2019-04-30T20:40:47.610Z,10.28
2019-04-30T20:43:13.926Z,10.05
2019-04-30T20:45:42.818Z,9.68
2019-04-30T20:48:11.397Z,10.30
2019-04-30T20:50:39.906Z,9.58
2019-04-30T20:53:08.904Z,9.83
2019-04-30T20:55:38.849Z,10.35
2019-04-30T20:58:09.470Z,9.93
2019-04-30T21:00:38.492Z,10.15
2019-04-30T21:03:07.072Z,10.53
2019-04-30T21:05:35.795Z,10.40
2019-04-30T21:08:04.741Z,10.85
2019-04-30T21:10:33.354Z,10.63
2019-04-30T21:13:01.907Z,10.48
2019-04-30T21:15:30.504Z,10.75
2019-04-30T21:17:59.063Z,10.35
2019-04-30T21:20:28.849Z,10.70
2019-04-30T21:22:59.475Z,10.58
2019-04-30T21:25:29.165Z,10.23
2019-04-30T21:27:59.943Z,10.53
2019-04-30T21:30:28.338Z,10.10
2019-04-30T21:33:09.228Z,10.13
2019-04-30T21:35:44.984Z,11.05
2019-04-30T21:38:13.849Z,10.35
2019-04-30T21:40:42.507Z,10.48
2019-04-30T21:43:11.122Z,10.53
2019-04-30T21:45:39.983Z,10.38
2019-04-30T21:48:09.192Z,11.22
2019-04-30T21:50:39.645Z,11.10
2019-04-30T21:53:09.890Z,11.68
2019-04-30T21:55:39.795Z,11.03
2019-04-30T21:58:09.550Z,12.78
2019-04-30T22:00:42.667Z,11.45
2019-04-30T22:03:11.266Z,12.25
2019-04-30T22:05:39.718Z,11.05
2019-04-30T22:08:09.078Z,11.57
2019-04-30T22:10:38.010Z,12.05
2019-04-30T22:13:08.753Z,11.88
2019-04-30T22:15:37.254Z,11.55
2019-04-30T22:18:05.847Z,11.40
2019-04-30T22:20:34.336Z,11.45
2019-04-30T22:23:02.941Z,11.48
2019-04-30T22:25:31.496Z,11.45
2019-04-30T22:27:59.954Z,12.15
2019-04-30T22:30:28.644Z,11.50
2019-04-30T22:32:59.465Z,12.35
2019-04-30T22:35:29.435Z,12.63
2019-04-30T22:38:02.466Z,12.70
2019-04-30T22:43:00.260Z,13.13
2019-04-30T22:45:30.465Z,13.08
2019-04-30T22:47:59.281Z,13.48
2019-04-30T22:50:27.828Z,13.83
2019-04-30T22:52:56.379Z,13.80
2019-04-30T22:55:24.910Z,13.50
2019-04-30T22:57:53.543Z,13.65
2019-04-30T23:00:29.351Z,13.70
2019-04-30T23:02:59.484Z,15.28
2019-04-30T23:05:28.056Z,19.55
2019-04-30T23:07:56.634Z,21.52
2019-04-30T23:10:25.257Z,17.23
2019-04-30T23:12:54.071Z,15.72
2019-04-30T23:15:22.908Z,13.30
2019-04-30T23:17:51.480Z,14.45
2019-04-30T23:20:20.135Z,14.47
2019-04-30T23:22:48.895Z,14.33
2019-04-30T23:25:17.483Z,13.48
2019-04-30T23:27:48.236Z,13.35
2019-04-30T23:30:17.090Z,14.20
2019-04-30T23:32:48.879Z,14.50
2019-04-30T23:35:17.568Z,19.87
2019-04-30T23:37:46.115Z,31.87
2019-04-30T23:40:28.140Z,25.82
2019-04-30T23:42:56.726Z,21.25
2019-04-30T23:45:25.479Z,21.00
2019-04-30T23:47:54.011Z,24.52
2019-04-30T23:50:22.550Z,25.95
2019-04-30T23:52:51.210Z,25.20
2019-04-30T23:55:19.741Z,21.87
2019-04-30T23:57:48.318Z,19.23
